Enter the Airport ICAO Code

Search by Airport or City

Current Weather

SKBQ | Ernesto Cortissoz International Airport

Barranquilla, Colombia

Last Update 4 Minutes Ago

Mist

Temperature of 26 ēC

Calm Wind

Temperature

26 ēC

Dew Point Temperature

25 ēC

Relative Humidity

94.27 %

Wind Direction

None

Wind Velocity

0 km/h (0 kt)

Gusts

None

Visibility

Reduced to 5.0 Kilometers

Sea Level Pressure

1012 hPa (Hectopascals)

Layers of Clouds

5% to 30% of Sky Covered from 305 mts (1000 ft) Above Ground Level.

30% to 60% of Sky Covered from 2438 mts (8000 ft) Above Ground Level.

METAR SKBQ 191200Z 00000KT 5000 BR FEW010 SCT080 26/25 Q1012 NOSIG RMK A2989

Weather Forecast

SKBQ | Ernesto Cortissoz International Airport

Barranquilla, Colombia

Forecast valid for the next 24 Hours

From now on it is expected:

Mist

Light Winds from Variable Directions

In 3 to 4 hours it is expected the begining of:

Partly Cloudy Sky

In 9 hours it is expected the begining of 4 hours with intermittent periods of:

Thunderstorm with Rain

In 14 hours it is expected the begining of 4 hours with intermittent periods of:

Drizzle

In 22 to 23 hours it is expected the begining of:

Fog Banks

Maximum Temperature

No Data

Minimum Temperature

No Data

TAF SKBQ 191030Z 1912/2012 VRB02KT 5000 BR SCT007 BECMG 1915/1916 9999 NSW SCT010 TEMPO 1921/2001 5000 TSRA SCT010CB SCT080 TEMPO 2002/2006 9999 DZ SCT010 BKN070 BECMG 2010/2011 5000 BCFG TX28/1920Z TN17/2009Z